Brightway — 9V8755 — position and weather

sailwx.info

Track history (hours):
 
Tides and Currents Weather Stations Pressure Air Temp Water Temp Dewpoint Dewpoint Depression Visibility Wind Speed Wind Dir Waves Ship Positions

Brightway

Last reported at 2014-Sep-20 07:06 UTC. Time now 2014-Sep-23 14:22 UTC.
Position N 19°47' E 108°57'.

Length 274 m; draft 9.5 m.

Type: Tanker. MMSI: 566422000.

Date/timePositionNaut miles runAvg speedWind from/ knotsBaromVisibWave heightAir tempDewpointWater temp
2014-Sep-20 07:06N 19°47' E 108°57'0 0.0
2014-Sep-20 06:15N 19°47' E 108°57'0 0.2
2014-Sep-20 03:33N 19°47' E 108°57'7 7.3
2014-Sep-20 02:33N 19°49' E 109°05'  
2014-Sep-17 10:33N 19°48' E 109°08'2 1.6
2014-Sep-17 09:33N 19°48' E 109°07'3 3.3
2014-Sep-17 08:33N 19°48' E 109°03'6 6.3
2014-Sep-17 07:32N 19°47' E 108°57'0 0.4
2014-Sep-17 06:30N 19°47' E 108°56'0 0.0
2014-Sep-17 02:15N 19°47' E 108°56'2 3.1
2014-Sep-17 01:29N 19°46' E 108°54'3 0.1
2014-Sep-15 18:32N 19°47' E 108°56'  
2014-Sep-11 00:34N 01°15' E 104°01'5 4.6
2014-Sep-10 23:33N 01°15' E 103°56'0 0.0
2014-Sep-10 22:33N 01°15' E 103°56'0 0.0
2014-Sep-10 21:33N 01°15' E 103°56'0 0.0
2014-Sep-10 20:33N 01°15' E 103°56'0 0.0
2014-Sep-10 19:33N 01°15' E 103°56'0 0.0
2014-Sep-10 18:33N 01°15' E 103°56'0 0.3
2014-Sep-10 17:33N 01°15' E 103°56'0 0.1
2014-Sep-10 16:33N 01°15' E 103°56'0 0.0
2014-Sep-10 15:33N 01°15' E 103°56'0 0.0
2014-Sep-10 14:33N 01°15' E 103°56'0 0.0
2014-Sep-10 13:33N 01°15' E 103°56'0 0.1
2014-Sep-10 12:30N 01°15' E 103°56'0 0.2
2014-Sep-10 11:33N 01°15' E 103°56'0 0.1
2014-Sep-10 10:33N 01°15' E 103°56'0 0.0
2014-Sep-10 09:33N 01°15' E 103°56'1 1.3
2014-Sep-10 08:33N 01°16' E 103°57'2 2.2
2014-Sep-10 07:33N 01°14' E 103°57'  
Track history (hours):
 
Tides and Currents Weather Stations Pressure Air Temp Water Temp Dewpoint Dewpoint Depression Visibility Wind Speed Wind Dir Waves Ship Positions

Brightway

Last reported at 2014-Sep-20 07:06 UTC. Time now 2014-Sep-23 14:22 UTC.
Position N 19°47' E 108°57'.

Length 274 m; draft 9.5 m.

Type: Tanker. MMSI: 566422000.

Date/timePositionNaut miles runAvg speedWind from/ knotsBaromVisibWave heightAir tempDewpointWater temp
2014-Sep-20 07:06N 19°47' E 108°57'0 0.0
2014-Sep-20 06:15N 19°47' E 108°57'0 0.2
2014-Sep-20 03:33N 19°47' E 108°57'7 7.3
2014-Sep-20 02:33N 19°49' E 109°05'  
2014-Sep-17 10:33N 19°48' E 109°08'2 1.6
2014-Sep-17 09:33N 19°48' E 109°07'3 3.3
2014-Sep-17 08:33N 19°48' E 109°03'6 6.3
2014-Sep-17 07:32N 19°47' E 108°57'0 0.4
2014-Sep-17 06:30N 19°47' E 108°56'0 0.0
2014-Sep-17 02:15N 19°47' E 108°56'2 3.1
2014-Sep-17 01:29N 19°46' E 108°54'3 0.1
2014-Sep-15 18:32N 19°47' E 108°56'  
2014-Sep-11 00:34N 01°15' E 104°01'5 4.6
2014-Sep-10 23:33N 01°15' E 103°56'0 0.0
2014-Sep-10 22:33N 01°15' E 103°56'0 0.0
2014-Sep-10 21:33N 01°15' E 103°56'0 0.0
2014-Sep-10 20:33N 01°15' E 103°56'0 0.0
2014-Sep-10 19:33N 01°15' E 103°56'0 0.0
2014-Sep-10 18:33N 01°15' E 103°56'0 0.3
2014-Sep-10 17:33N 01°15' E 103°56'0 0.1
2014-Sep-10 16:33N 01°15' E 103°56'0 0.0
2014-Sep-10 15:33N 01°15' E 103°56'0 0.0
2014-Sep-10 14:33N 01°15' E 103°56'0 0.0
2014-Sep-10 13:33N 01°15' E 103°56'0 0.1
2014-Sep-10 12:30N 01°15' E 103°56'0 0.2
2014-Sep-10 11:33N 01°15' E 103°56'0 0.1
2014-Sep-10 10:33N 01°15' E 103°56'0 0.0
2014-Sep-10 09:33N 01°15' E 103°56'1 1.3
2014-Sep-10 08:33N 01°16' E 103°57'2 2.2
2014-Sep-10 07:33N 01°14' E 103°57'  

Dump ship's entire track history